sensor_id;sensor_type;location;lat;lon;timestamp;P1;durP1;ratioP1;P2;durP2;ratioP2
41952;SDS011;63613;28.200;112.870;2024-03-08T00:00:46;31.05;;;21.33;;
41952;SDS011;63613;28.200;112.870;2024-03-08T00:03:17;27.95;;;20.25;;
41952;SDS011;63613;28.200;112.870;2024-03-08T00:05:47;29.13;;;20.50;;
41952;SDS011;63613;28.200;112.870;2024-03-08T00:08:15;30.20;;;21.50;;
41952;SDS011;63613;28.200;112.870;2024-03-08T00:10:44;29.48;;;21.48;;
41952;SDS011;63613;28.200;112.870;2024-03-08T00:13:12;26.55;;;20.48;;
41952;SDS011;63613;28.200;112.870;2024-03-08T00:15:42;27.92;;;19.77;;
41952;SDS011;63613;28.200;112.870;2024-03-08T00:18:11;29.30;;;20.88;;
41952;SDS011;63613;28.200;112.870;2024-03-08T00:20:40;28.63;;;20.60;;
41952;SDS011;63613;28.200;112.870;2024-03-08T00:23:10;32.08;;;21.33;;
41952;SDS011;63613;28.200;112.870;2024-03-08T00:25:41;28.08;;;20.27;;
41952;SDS011;63613;28.200;112.870;2024-03-08T00:28:12;28.27;;;19.70;;
41952;SDS011;63613;28.200;112.870;2024-03-08T00:30:43;28.05;;;20.83;;
41952;SDS011;63613;28.200;112.870;2024-03-08T00:33:12;28.88;;;20.23;;
41952;SDS011;63613;28.200;112.870;2024-03-08T00:35:41;25.65;;;19.38;;
41952;SDS011;63613;28.200;112.870;2024-03-08T00:38:10;28.60;;;20.42;;
41952;SDS011;63613;28.200;112.870;2024-03-08T00:40:40;27.80;;;19.65;;
41952;SDS011;63613;28.200;112.870;2024-03-08T00:43:08;26.73;;;20.27;;
41952;SDS011;63613;28.200;112.870;2024-03-08T00:45:38;27.00;;;19.58;;
41952;SDS011;63613;28.200;112.870;2024-03-08T00:48:08;27.98;;;18.98;;
41952;SDS011;63613;28.200;112.870;2024-03-08T00:50:37;26.75;;;19.55;;
41952;SDS011;63613;28.200;112.870;2024-03-08T00:53:06;25.75;;;17.63;;
41952;SDS011;63613;28.200;112.870;2024-03-08T00:55:37;24.33;;;17.60;;
41952;SDS011;63613;28.200;112.870;2024-03-08T00:58:05;27.23;;;18.10;;
41952;SDS011;63613;28.200;112.870;2024-03-08T01:00:35;26.73;;;18.48;;
41952;SDS011;63613;28.200;112.870;2024-03-08T01:03:04;26.10;;;18.23;;
41952;SDS011;63613;28.200;112.870;2024-03-08T01:05:34;25.45;;;18.35;;
41952;SDS011;63613;28.200;112.870;2024-03-08T01:08:03;24.67;;;17.75;;
41952;SDS011;63613;28.200;112.870;2024-03-08T01:10:32;26.45;;;17.88;;
41952;SDS011;63613;28.200;112.870;2024-03-08T01:13:00;25.08;;;17.27;;
41952;SDS011;63613;28.200;112.870;2024-03-08T01:15:29;26.00;;;19.20;;
41952;SDS011;63613;28.200;112.870;2024-03-08T01:17:58;25.65;;;17.65;;
41952;SDS011;63613;28.200;112.870;2024-03-08T01:20:27;23.90;;;17.75;;
41952;SDS011;63613;28.200;112.870;2024-03-08T01:22:57;25.70;;;18.08;;
41952;SDS011;63613;28.200;112.870;2024-03-08T01:25:25;24.10;;;17.50;;
41952;SDS011;63613;28.200;112.870;2024-03-08T01:27:54;26.10;;;18.02;;
41952;SDS011;63613;28.200;112.870;2024-03-08T01:30:23;22.27;;;17.33;;
41952;SDS011;63613;28.200;112.870;2024-03-08T01:32:52;21.38;;;16.08;;
41952;SDS011;63613;28.200;112.870;2024-03-08T01:35:20;22.35;;;16.85;;
41952;SDS011;63613;28.200;112.870;2024-03-08T01:37:49;25.73;;;16.95;;
41952;SDS011;63613;28.200;112.870;2024-03-08T01:40:18;24.95;;;16.85;;
41952;SDS011;63613;28.200;112.870;2024-03-08T01:42:48;24.48;;;16.60;;
41952;SDS011;63613;28.200;112.870;2024-03-08T01:45:17;22.92;;;16.77;;
41952;SDS011;63613;28.200;112.870;2024-03-08T01:47:45;22.83;;;16.88;;
41952;SDS011;63613;28.200;112.870;2024-03-08T01:50:14;23.23;;;16.17;;
41952;SDS011;63613;28.200;112.870;2024-03-08T01:52:43;22.30;;;16.85;;
41952;SDS011;63613;28.200;112.870;2024-03-08T01:55:13;21.95;;;16.48;;
41952;SDS011;63613;28.200;112.870;2024-03-08T01:57:41;23.10;;;17.05;;
41952;SDS011;63613;28.200;112.870;2024-03-08T02:00:11;20.33;;;15.93;;
41952;SDS011;63613;28.200;112.870;2024-03-08T02:02:40;22.73;;;16.02;;
41952;SDS011;63613;28.200;112.870;2024-03-08T02:05:11;22.80;;;16.60;;
41952;SDS011;63613;28.200;112.870;2024-03-08T02:07:41;22.42;;;16.20;;
41952;SDS011;63613;28.200;112.870;2024-03-08T02:10:10;23.15;;;15.93;;
41952;SDS011;63613;28.200;112.870;2024-03-08T02:12:39;22.75;;;15.55;;
41952;SDS011;63613;28.200;112.870;2024-03-08T02:15:08;23.48;;;16.50;;
41952;SDS011;63613;28.200;112.870;2024-03-08T02:17:37;23.10;;;15.52;;
41952;SDS011;63613;28.200;112.870;2024-03-08T02:20:06;22.08;;;15.95;;
41952;SDS011;63613;28.200;112.870;2024-03-08T02:22:36;22.33;;;15.73;;
41952;SDS011;63613;28.200;112.870;2024-03-08T02:25:05;21.98;;;16.17;;
41952;SDS011;63613;28.200;112.870;2024-03-08T02:27:36;24.92;;;17.00;;
41952;SDS011;63613;28.200;112.870;2024-03-08T02:30:06;21.38;;;15.07;;
41952;SDS011;63613;28.200;112.870;2024-03-08T02:32:38;22.75;;;16.98;;
41952;SDS011;63613;28.200;112.870;2024-03-08T02:35:07;22.95;;;16.75;;
41952;SDS011;63613;28.200;112.870;2024-03-08T02:37:36;21.83;;;16.30;;
41952;SDS011;63613;28.200;112.870;2024-03-08T02:40:04;21.85;;;16.55;;
41952;SDS011;63613;28.200;112.870;2024-03-08T02:42:34;23.90;;;16.20;;
41952;SDS011;63613;28.200;112.870;2024-03-08T02:45:03;22.00;;;15.65;;
41952;SDS011;63613;28.200;112.870;2024-03-08T02:47:35;20.55;;;16.00;;
41952;SDS011;63613;28.200;112.870;2024-03-08T02:50:05;22.20;;;15.25;;
41952;SDS011;63613;28.200;112.870;2024-03-08T02:52:35;23.42;;;16.13;;
41952;SDS011;63613;28.200;112.870;2024-03-08T02:55:04;21.33;;;16.33;;
41952;SDS011;63613;28.200;112.870;2024-03-08T02:57:34;23.50;;;16.25;;
41952;SDS011;63613;28.200;112.870;2024-03-08T03:00:03;23.33;;;16.80;;
41952;SDS011;63613;28.200;112.870;2024-03-08T03:02:35;23.05;;;16.05;;
41952;SDS011;63613;28.200;112.870;2024-03-08T03:05:05;21.05;;;16.38;;
41952;SDS011;63613;28.200;112.870;2024-03-08T03:07:35;21.88;;;15.45;;
41952;SDS011;63613;28.200;112.870;2024-03-08T03:10:05;22.45;;;16.10;;
41952;SDS011;63613;28.200;112.870;2024-03-08T03:12:34;20.90;;;15.80;;
41952;SDS011;63613;28.200;112.870;2024-03-08T03:15:04;22.67;;;16.27;;
41952;SDS011;63613;28.200;112.870;2024-03-08T03:17:34;22.05;;;16.20;;
41952;SDS011;63613;28.200;112.870;2024-03-08T03:20:04;25.13;;;17.90;;
41952;SDS011;63613;28.200;112.870;2024-03-08T03:22:39;23.25;;;16.20;;
41952;SDS011;63613;28.200;112.870;2024-03-08T03:25:11;23.95;;;17.42;;
41952;SDS011;63613;28.200;112.870;2024-03-08T03:27:40;24.13;;;16.58;;
41952;SDS011;63613;28.200;112.870;2024-03-08T03:30:09;22.40;;;15.82;;
41952;SDS011;63613;28.200;112.870;2024-03-08T03:32:56;21.35;;;15.80;;
41952;SDS011;63613;28.200;112.870;2024-03-08T03:35:28;24.65;;;16.25;;
41952;SDS011;63613;28.200;112.870;2024-03-08T03:37:57;26.08;;;18.27;;
41952;SDS011;63613;28.200;112.870;2024-03-08T03:40:33;27.73;;;18.02;;
41952;SDS011;63613;28.200;112.870;2024-03-08T03:43:02;24.83;;;16.92;;
41952;SDS011;63613;28.200;112.870;2024-03-08T03:45:32;25.52;;;17.00;;
41952;SDS011;63613;28.200;112.870;2024-03-08T03:48:02;25.25;;;17.08;;
41952;SDS011;63613;28.200;112.870;2024-03-08T03:50:35;27.40;;;18.23;;
41952;SDS011;63613;28.200;112.870;2024-03-08T03:53:04;33.60;;;18.55;;
41952;SDS011;63613;28.200;112.870;2024-03-08T03:55:34;42.13;;;20.77;;
41952;SDS011;63613;28.200;112.870;2024-03-08T03:58:04;39.08;;;21.10;;
41952;SDS011;63613;28.200;112.870;2024-03-08T04:00:33;39.15;;;20.98;;
41952;SDS011;63613;28.200;112.870;2024-03-08T04:03:01;39.85;;;21.25;;
41952;SDS011;63613;28.200;112.870;2024-03-08T04:05:30;38.97;;;20.13;;
41952;SDS011;63613;28.200;112.870;2024-03-08T04:08:00;40.13;;;19.77;;
41952;SDS011;63613;28.200;112.870;2024-03-08T04:10:29;33.92;;;19.55;;
41952;SDS011;63613;28.200;112.870;2024-03-08T04:12:57;37.70;;;20.80;;
41952;SDS011;63613;28.200;112.870;2024-03-08T04:15:26;37.88;;;19.33;;
41952;SDS011;63613;28.200;112.870;2024-03-08T04:17:55;43.30;;;21.80;;
41952;SDS011;63613;28.200;112.870;2024-03-08T04:20:24;37.35;;;21.67;;
41952;SDS011;63613;28.200;112.870;2024-03-08T04:22:53;36.35;;;20.63;;
41952;SDS011;63613;28.200;112.870;2024-03-08T04:25:22;40.00;;;22.20;;
41952;SDS011;63613;28.200;112.870;2024-03-08T04:27:51;29.73;;;18.25;;
41952;SDS011;63613;28.200;112.870;2024-03-08T04:30:20;34.78;;;20.67;;
41952;SDS011;63613;28.200;112.870;2024-03-08T04:32:49;36.03;;;20.15;;
41952;SDS011;63613;28.200;112.870;2024-03-08T04:35:18;35.90;;;19.60;;
41952;SDS011;63613;28.200;112.870;2024-03-08T04:37:47;35.10;;;20.02;;
41952;SDS011;63613;28.200;112.870;2024-03-08T04:40:16;34.83;;;20.50;;
41952;SDS011;63613;28.200;112.870;2024-03-08T04:42:44;33.35;;;19.48;;
41952;SDS011;63613;28.200;112.870;2024-03-08T04:45:17;35.55;;;20.30;;
41952;SDS011;63613;28.200;112.870;2024-03-08T04:47:47;30.70;;;18.02;;
41952;SDS011;63613;28.200;112.870;2024-03-08T04:50:17;33.30;;;18.48;;
41952;SDS011;63613;28.200;112.870;2024-03-08T04:52:46;29.73;;;18.73;;
41952;SDS011;63613;28.200;112.870;2024-03-08T04:55:14;32.55;;;19.75;;
41952;SDS011;63613;28.200;112.870;2024-03-08T04:57:48;30.50;;;18.08;;
41952;SDS011;63613;28.200;112.870;2024-03-08T05:00:16;32.25;;;17.98;;
41952;SDS011;63613;28.200;112.870;2024-03-08T05:02:46;29.88;;;18.05;;
41952;SDS011;63613;28.200;112.870;2024-03-08T05:05:19;31.70;;;19.17;;
41952;SDS011;63613;28.200;112.870;2024-03-08T05:07:50;33.78;;;19.23;;
41952;SDS011;63613;28.200;112.870;2024-03-08T05:10:19;32.38;;;19.00;;
41952;SDS011;63613;28.200;112.870;2024-03-08T05:12:48;31.20;;;18.50;;
41952;SDS011;63613;28.200;112.870;2024-03-08T05:15:17;30.33;;;18.27;;
41952;SDS011;63613;28.200;112.870;2024-03-08T05:17:46;29.48;;;18.17;;
41952;SDS011;63613;28.200;112.870;2024-03-08T05:20:16;31.73;;;18.23;;
41952;SDS011;63613;28.200;112.870;2024-03-08T05:22:45;28.70;;;17.55;;
41952;SDS011;63613;28.200;112.870;2024-03-08T05:25:14;33.83;;;17.52;;
41952;SDS011;63613;28.200;112.870;2024-03-08T05:27:43;27.67;;;18.63;;
41952;SDS011;63613;28.200;112.870;2024-03-08T05:30:13;28.75;;;17.40;;
41952;SDS011;63613;28.200;112.870;2024-03-08T05:32:42;29.45;;;17.75;;
41952;SDS011;63613;28.200;112.870;2024-03-08T05:35:11;30.67;;;18.00;;
41952;SDS011;63613;28.200;112.870;2024-03-08T05:37:42;29.20;;;17.35;;
41952;SDS011;63613;28.200;112.870;2024-03-08T05:40:11;34.78;;;18.52;;
41952;SDS011;63613;28.200;112.870;2024-03-08T05:42:39;29.55;;;16.92;;
41952;SDS011;63613;28.200;112.870;2024-03-08T05:45:09;24.67;;;16.75;;
41952;SDS011;63613;28.200;112.870;2024-03-08T05:47:39;29.40;;;18.65;;
41952;SDS011;63613;28.200;112.870;2024-03-08T05:50:08;27.13;;;17.77;;
41952;SDS011;63613;28.200;112.870;2024-03-08T05:52:37;25.90;;;16.60;;
41952;SDS011;63613;28.200;112.870;2024-03-08T05:55:06;26.55;;;16.38;;
41952;SDS011;63613;28.200;112.870;2024-03-08T05:57:36;26.65;;;16.35;;
41952;SDS011;63613;28.200;112.870;2024-03-08T06:00:06;28.05;;;17.08;;
41952;SDS011;63613;28.200;112.870;2024-03-08T06:02:37;27.08;;;16.65;;
41952;SDS011;63613;28.200;112.870;2024-03-08T06:05:08;26.23;;;15.88;;
41952;SDS011;63613;28.200;112.870;2024-03-08T06:07:38;30.33;;;17.55;;
41952;SDS011;63613;28.200;112.870;2024-03-08T06:10:07;27.95;;;17.02;;
41952;SDS011;63613;28.200;112.870;2024-03-08T06:12:39;25.48;;;16.27;;
41952;SDS011;63613;28.200;112.870;2024-03-08T06:15:08;25.75;;;16.33;;
41952;SDS011;63613;28.200;112.870;2024-03-08T06:17:41;27.00;;;17.08;;
41952;SDS011;63613;28.200;112.870;2024-03-08T06:20:10;27.30;;;15.93;;
41952;SDS011;63613;28.200;112.870;2024-03-08T06:22:39;26.23;;;17.20;;
41952;SDS011;63613;28.200;112.870;2024-03-08T06:25:08;24.85;;;16.20;;
41952;SDS011;63613;28.200;112.870;2024-03-08T06:27:40;24.80;;;16.02;;
41952;SDS011;63613;28.200;112.870;2024-03-08T06:30:11;26.20;;;16.58;;
41952;SDS011;63613;28.200;112.870;2024-03-08T06:32:42;26.42;;;16.70;;
41952;SDS011;63613;28.200;112.870;2024-03-08T06:35:11;23.13;;;15.63;;
41952;SDS011;63613;28.200;112.870;2024-03-08T06:37:41;25.20;;;15.77;;
41952;SDS011;63613;28.200;112.870;2024-03-08T06:40:11;25.77;;;16.23;;
41952;SDS011;63613;28.200;112.870;2024-03-08T06:42:40;23.00;;;14.68;;
41952;SDS011;63613;28.200;112.870;2024-03-08T06:45:09;23.48;;;15.23;;
41952;SDS011;63613;28.200;112.870;2024-03-08T06:47:38;25.92;;;15.45;;
41952;SDS011;63613;28.200;112.870;2024-03-08T06:50:08;26.63;;;16.92;;
41952;SDS011;63613;28.200;112.870;2024-03-08T06:52:37;22.50;;;15.05;;
41952;SDS011;63613;28.200;112.870;2024-03-08T06:55:06;27.33;;;16.13;;
41952;SDS011;63613;28.200;112.870;2024-03-08T06:57:40;26.42;;;16.02;;
41952;SDS011;63613;28.200;112.870;2024-03-08T07:00:10;27.02;;;16.80;;
41952;SDS011;63613;28.200;112.870;2024-03-08T07:02:44;24.88;;;16.88;;
41952;SDS011;63613;28.200;112.870;2024-03-08T07:05:15;23.95;;;16.13;;
41952;SDS011;63613;28.200;112.870;2024-03-08T07:07:44;25.55;;;16.83;;
41952;SDS011;63613;28.200;112.870;2024-03-08T07:10:16;27.75;;;16.48;;
41952;SDS011;63613;28.200;112.870;2024-03-08T07:12:45;25.95;;;15.90;;
41952;SDS011;63613;28.200;112.870;2024-03-08T07:15:13;25.27;;;16.90;;
41952;SDS011;63613;28.200;112.870;2024-03-08T07:17:45;23.45;;;17.05;;
41952;SDS011;63613;28.200;112.870;2024-03-08T07:20:14;26.60;;;16.30;;
41952;SDS011;63613;28.200;112.870;2024-03-08T07:22:46;27.05;;;17.45;;
41952;SDS011;63613;28.200;112.870;2024-03-08T07:25:17;27.55;;;17.05;;
41952;SDS011;63613;28.200;112.870;2024-03-08T07:27:51;27.10;;;16.95;;
41952;SDS011;63613;28.200;112.870;2024-03-08T07:30:22;27.27;;;17.02;;
41952;SDS011;63613;28.200;112.870;2024-03-08T07:33:11;26.58;;;16.92;;
41952;SDS011;63613;28.200;112.870;2024-03-08T07:35:40;23.85;;;16.20;;
41952;SDS011;63613;28.200;112.870;2024-03-08T07:38:11;24.52;;;15.32;;
41952;SDS011;63613;28.200;112.870;2024-03-08T07:40:41;23.52;;;15.90;;
41952;SDS011;63613;28.200;112.870;2024-03-08T07:43:10;23.85;;;16.17;;
41952;SDS011;63613;28.200;112.870;2024-03-08T07:45:40;22.85;;;16.23;;
41952;SDS011;63613;28.200;112.870;2024-03-08T07:48:09;24.52;;;16.15;;
41952;SDS011;63613;28.200;112.870;2024-03-08T07:50:39;26.48;;;16.25;;
41952;SDS011;63613;28.200;112.870;2024-03-08T07:53:08;26.02;;;16.38;;
41952;SDS011;63613;28.200;112.870;2024-03-08T07:55:38;28.80;;;17.42;;
41952;SDS011;63613;28.200;112.870;2024-03-08T07:58:08;26.75;;;16.45;;
41952;SDS011;63613;28.200;112.870;2024-03-08T08:00:37;24.77;;;16.10;;
41952;SDS011;63613;28.200;112.870;2024-03-08T08:03:08;22.42;;;15.90;;
41952;SDS011;63613;28.200;112.870;2024-03-08T08:05:39;19.92;;;15.77;;
41952;SDS011;63613;28.200;112.870;2024-03-08T08:08:08;25.25;;;15.90;;
41952;SDS011;63613;28.200;112.870;2024-03-08T08:10:37;22.10;;;16.00;;
41952;SDS011;63613;28.200;112.870;2024-03-08T08:13:06;22.67;;;14.77;;
41952;SDS011;63613;28.200;112.870;2024-03-08T08:15:34;21.70;;;14.80;;
41952;SDS011;63613;28.200;112.870;2024-03-08T08:18:04;23.52;;;16.08;;
41952;SDS011;63613;28.200;112.870;2024-03-08T08:20:35;24.60;;;15.23;;
41952;SDS011;63613;28.200;112.870;2024-03-08T08:23:04;56.63;;;34.00;;
41952;SDS011;63613;28.200;112.870;2024-03-08T08:25:33;39.15;;;25.85;;
41952;SDS011;63613;28.200;112.870;2024-03-08T08:28:01;51.83;;;32.95;;
41952;SDS011;63613;28.200;112.870;2024-03-08T08:30:31;62.45;;;37.63;;
41952;SDS011;63613;28.200;112.870;2024-03-08T08:33:00;81.32;;;45.20;;
41952;SDS011;63613;28.200;112.870;2024-03-08T08:35:31;87.50;;;50.67;;
41952;SDS011;63613;28.200;112.870;2024-03-08T08:37:59;87.35;;;52.75;;
41952;SDS011;63613;28.200;112.870;2024-03-08T08:40:29;91.40;;;52.60;;
41952;SDS011;63613;28.200;112.870;2024-03-08T08:42:58;83.97;;;51.95;;
41952;SDS011;63613;28.200;112.870;2024-03-08T08:45:30;83.10;;;51.83;;
41952;SDS011;63613;28.200;112.870;2024-03-08T08:47:59;96.22;;;53.08;;
41952;SDS011;63613;28.200;112.870;2024-03-08T08:50:28;96.72;;;57.35;;
41952;SDS011;63613;28.200;112.870;2024-03-08T08:52:58;90.93;;;52.28;;
41952;SDS011;63613;28.200;112.870;2024-03-08T08:55:29;84.65;;;51.95;;
41952;SDS011;63613;28.200;112.870;2024-03-08T08:58:01;81.90;;;48.63;;
41952;SDS011;63613;28.200;112.870;2024-03-08T09:00:30;87.00;;;52.25;;
41952;SDS011;63613;28.200;112.870;2024-03-08T09:02:58;82.43;;;49.90;;
41952;SDS011;63613;28.200;112.870;2024-03-08T09:05:29;86.10;;;52.97;;
41952;SDS011;63613;28.200;112.870;2024-03-08T09:07:58;82.03;;;51.78;;
41952;SDS011;63613;28.200;112.870;2024-03-08T09:10:27;81.80;;;51.05;;
41952;SDS011;63613;28.200;112.870;2024-03-08T09:12:55;81.65;;;49.45;;
41952;SDS011;63613;28.200;112.870;2024-03-08T09:15:25;85.63;;;52.65;;
41952;SDS011;63613;28.200;112.870;2024-03-08T09:17:55;85.90;;;53.28;;
41952;SDS011;63613;28.200;112.870;2024-03-08T09:20:25;74.60;;;48.63;;
41952;SDS011;63613;28.200;112.870;2024-03-08T09:22:54;75.82;;;48.88;;
41952;SDS011;63613;28.200;112.870;2024-03-08T09:25:23;80.50;;;51.78;;
41952;SDS011;63613;28.200;112.870;2024-03-08T09:27:52;71.38;;;46.95;;
41952;SDS011;63613;28.200;112.870;2024-03-08T09:30:21;85.55;;;52.67;;
41952;SDS011;63613;28.200;112.870;2024-03-08T09:32:50;77.00;;;48.33;;
41952;SDS011;63613;28.200;112.870;2024-03-08T09:35:19;85.85;;;49.72;;
41952;SDS011;63613;28.200;112.870;2024-03-08T09:37:48;81.88;;;51.05;;
41952;SDS011;63613;28.200;112.870;2024-03-08T09:40:17;85.85;;;49.28;;
41952;SDS011;63613;28.200;112.870;2024-03-08T09:42:50;77.05;;;47.63;;
41952;SDS011;63613;28.200;112.870;2024-03-08T09:45:19;85.22;;;49.40;;
41952;SDS011;63613;28.200;112.870;2024-03-08T09:47:50;85.85;;;50.13;;
41952;SDS011;63613;28.200;112.870;2024-03-08T09:50:20;85.90;;;50.22;;
41952;SDS011;63613;28.200;112.870;2024-03-08T09:52:49;80.43;;;49.92;;
41952;SDS011;63613;28.200;112.870;2024-03-08T09:55:19;84.32;;;50.80;;
41952;SDS011;63613;28.200;112.870;2024-03-08T09:57:52;82.13;;;49.67;;
41952;SDS011;63613;28.200;112.870;2024-03-08T10:00:41;84.32;;;50.50;;
41952;SDS011;63613;28.200;112.870;2024-03-08T10:03:12;76.38;;;48.05;;
41952;SDS011;63613;28.200;112.870;2024-03-08T10:05:41;82.95;;;47.75;;
41952;SDS011;63613;28.200;112.870;2024-03-08T10:08:11;75.03;;;47.33;;
41952;SDS011;63613;28.200;112.870;2024-03-08T10:10:40;75.93;;;48.28;;
41952;SDS011;63613;28.200;112.870;2024-03-08T10:13:10;81.53;;;48.20;;
41952;SDS011;63613;28.200;112.870;2024-03-08T10:15:42;77.20;;;48.42;;
41952;SDS011;63613;28.200;112.870;2024-03-08T10:18:11;67.90;;;45.38;;
41952;SDS011;63613;28.200;112.870;2024-03-08T10:20:42;70.22;;;43.75;;
41952;SDS011;63613;28.200;112.870;2024-03-08T10:23:12;77.07;;;45.80;;
41952;SDS011;63613;28.200;112.870;2024-03-08T10:25:44;72.22;;;46.05;;
41952;SDS011;63613;28.200;112.870;2024-03-08T10:28:13;75.95;;;47.95;;
41952;SDS011;63613;28.200;112.870;2024-03-08T10:30:46;71.88;;;46.60;;
41952;SDS011;63613;28.200;112.870;2024-03-08T10:33:17;73.80;;;46.45;;
41952;SDS011;63613;28.200;112.870;2024-03-08T10:35:46;69.93;;;45.28;;
41952;SDS011;63613;28.200;112.870;2024-03-08T10:38:16;73.53;;;45.47;;
41952;SDS011;63613;28.200;112.870;2024-03-08T10:40:50;73.10;;;46.03;;
41952;SDS011;63613;28.200;112.870;2024-03-08T10:43:23;73.47;;;45.53;;
41952;SDS011;63613;28.200;112.870;2024-03-08T10:46:01;70.45;;;45.53;;
41952;SDS011;63613;28.200;112.870;2024-03-08T10:48:44;67.13;;;43.88;;
41952;SDS011;63613;28.200;112.870;2024-03-08T10:51:18;74.30;;;45.07;;
41952;SDS011;63613;28.200;112.870;2024-03-08T10:53:48;72.90;;;45.20;;
41952;SDS011;63613;28.200;112.870;2024-03-08T10:56:19;66.90;;;42.72;;
41952;SDS011;63613;28.200;112.870;2024-03-08T10:58:49;69.50;;;43.80;;
41952;SDS011;63613;28.200;112.870;2024-03-08T11:01:20;63.80;;;42.60;;
41952;SDS011;63613;28.200;112.870;2024-03-08T11:03:52;67.25;;;43.22;;
41952;SDS011;63613;28.200;112.870;2024-03-08T11:06:29;65.93;;;41.83;;
41952;SDS011;63613;28.200;112.870;2024-03-08T11:09:27;66.93;;;42.53;;
41952;SDS011;63613;28.200;112.870;2024-03-08T11:14:48;60.28;;;39.85;;
41952;SDS011;63613;28.200;112.870;2024-03-08T11:17:27;63.97;;;40.92;;
41952;SDS011;63613;28.200;112.870;2024-03-08T11:20:10;67.43;;;42.10;;
41952;SDS011;63613;28.200;112.870;2024-03-08T11:22:52;64.18;;;41.50;;
41952;SDS011;63613;28.200;112.870;2024-03-08T11:25:35;66.15;;;41.25;;
41952;SDS011;63613;28.200;112.870;2024-03-08T11:28:14;63.47;;;39.63;;
41952;SDS011;63613;28.200;112.870;2024-03-08T11:33:45;61.75;;;41.08;;
41952;SDS011;63613;28.200;112.870;2024-03-08T11:36:23;61.20;;;40.47;;
41952;SDS011;63613;28.200;112.870;2024-03-08T11:38:53;64.97;;;40.38;;
41952;SDS011;63613;28.200;112.870;2024-03-08T11:41:34;58.78;;;40.15;;
41952;SDS011;63613;28.200;112.870;2024-03-08T11:44:07;64.63;;;41.25;;
41952;SDS011;63613;28.200;112.870;2024-03-08T11:46:42;61.08;;;40.20;;
41952;SDS011;63613;28.200;112.870;2024-03-08T11:49:14;59.53;;;39.45;;
41952;SDS011;63613;28.200;112.870;2024-03-08T11:51:44;60.53;;;39.47;;
41952;SDS011;63613;28.200;112.870;2024-03-08T11:54:13;60.28;;;39.50;;
41952;SDS011;63613;28.200;112.870;2024-03-08T11:56:43;61.70;;;40.50;;
41952;SDS011;63613;28.200;112.870;2024-03-08T11:59:14;60.40;;;39.10;;
41952;SDS011;63613;28.200;112.870;2024-03-08T12:01:44;57.33;;;38.55;;
41952;SDS011;63613;28.200;112.870;2024-03-08T12:04:29;58.53;;;37.67;;
41952;SDS011;63613;28.200;112.870;2024-03-08T12:06:59;57.72;;;38.58;;
41952;SDS011;63613;28.200;112.870;2024-03-08T12:09:35;56.97;;;37.55;;
41952;SDS011;63613;28.200;112.870;2024-03-08T12:12:06;55.78;;;36.90;;
41952;SDS011;63613;28.200;112.870;2024-03-08T12:14:38;55.50;;;37.83;;
41952;SDS011;63613;28.200;112.870;2024-03-08T12:17:11;55.67;;;37.63;;
41952;SDS011;63613;28.200;112.870;2024-03-08T12:19:45;51.50;;;36.33;;
41952;SDS011;63613;28.200;112.870;2024-03-08T12:22:24;58.22;;;38.30;;
41952;SDS011;63613;28.200;112.870;2024-03-08T12:25:04;56.10;;;37.65;;
41952;SDS011;63613;28.200;112.870;2024-03-08T12:27:38;58.13;;;37.03;;
41952;SDS011;63613;28.200;112.870;2024-03-08T12:30:19;53.63;;;36.15;;
41952;SDS011;63613;28.200;112.870;2024-03-08T12:32:52;52.80;;;35.03;;
41952;SDS011;63613;28.200;112.870;2024-03-08T12:35:26;53.42;;;36.13;;
41952;SDS011;63613;28.200;112.870;2024-03-08T12:37:59;54.97;;;36.42;;
41952;SDS011;63613;28.200;112.870;2024-03-08T12:40:31;55.65;;;36.20;;
41952;SDS011;63613;28.200;112.870;2024-03-08T12:43:07;53.85;;;37.60;;
41952;SDS011;63613;28.200;112.870;2024-03-08T12:45:38;56.42;;;35.75;;
41952;SDS011;63613;28.200;112.870;2024-03-08T12:48:15;53.47;;;35.90;;
41952;SDS011;63613;28.200;112.870;2024-03-08T12:50:47;51.33;;;36.38;;
41952;SDS011;63613;28.200;112.870;2024-03-08T12:53:22;57.08;;;37.15;;
41952;SDS011;63613;28.200;112.870;2024-03-08T12:55:55;51.28;;;34.38;;
41952;SDS011;63613;28.200;112.870;2024-03-08T12:58:25;51.83;;;35.28;;
41952;SDS011;63613;28.200;112.870;2024-03-08T13:00:55;48.13;;;33.28;;
41952;SDS011;63613;28.200;112.870;2024-03-08T13:03:24;50.22;;;34.28;;
41952;SDS011;63613;28.200;112.870;2024-03-08T13:05:54;48.05;;;33.22;;
41952;SDS011;63613;28.200;112.870;2024-03-08T13:08:25;46.25;;;31.42;;
41952;SDS011;63613;28.200;112.870;2024-03-08T13:10:57;45.08;;;32.20;;
41952;SDS011;63613;28.200;112.870;2024-03-08T13:13:27;47.80;;;31.33;;
41952;SDS011;63613;28.200;112.870;2024-03-08T13:15:56;45.22;;;31.15;;
41952;SDS011;63613;28.200;112.870;2024-03-08T13:18:27;46.45;;;33.30;;
41952;SDS011;63613;28.200;112.870;2024-03-08T13:20:57;45.90;;;31.88;;
41952;SDS011;63613;28.200;112.870;2024-03-08T13:23:31;44.92;;;30.40;;
41952;SDS011;63613;28.200;112.870;2024-03-08T13:26:12;46.15;;;31.05;;
41952;SDS011;63613;28.200;112.870;2024-03-08T13:28:45;42.35;;;30.73;;
41952;SDS011;63613;28.200;112.870;2024-03-08T13:31:20;46.03;;;30.17;;
41952;SDS011;63613;28.200;112.870;2024-03-08T13:33:50;43.88;;;29.83;;
41952;SDS011;63613;28.200;112.870;2024-03-08T13:36:24;42.17;;;28.40;;
41952;SDS011;63613;28.200;112.870;2024-03-08T13:39:05;42.83;;;29.30;;
41952;SDS011;63613;28.200;112.870;2024-03-08T13:41:41;41.13;;;29.08;;
41952;SDS011;63613;28.200;112.870;2024-03-08T13:44:11;39.85;;;28.40;;
41952;SDS011;63613;28.200;112.870;2024-03-08T13:46:40;41.70;;;28.80;;
41952;SDS011;63613;28.200;112.870;2024-03-08T13:49:09;41.30;;;29.27;;
41952;SDS011;63613;28.200;112.870;2024-03-08T13:51:38;42.88;;;29.90;;
41952;SDS011;63613;28.200;112.870;2024-03-08T13:54:08;40.42;;;28.92;;
41952;SDS011;63613;28.200;112.870;2024-03-08T13:56:37;41.08;;;30.13;;
41952;SDS011;63613;28.200;112.870;2024-03-08T13:59:06;37.80;;;27.40;;
41952;SDS011;63613;28.200;112.870;2024-03-08T14:01:35;33.42;;;24.45;;
41952;SDS011;63613;28.200;112.870;2024-03-08T14:04:04;31.88;;;24.40;;
41952;SDS011;63613;28.200;112.870;2024-03-08T14:06:35;34.40;;;26.15;;
41952;SDS011;63613;28.200;112.870;2024-03-08T14:09:04;35.08;;;24.45;;
41952;SDS011;63613;28.200;112.870;2024-03-08T14:11:34;37.08;;;26.08;;
41952;SDS011;63613;28.200;112.870;2024-03-08T14:14:04;36.95;;;26.65;;
41952;SDS011;63613;28.200;112.870;2024-03-08T14:16:35;35.72;;;26.20;;
41952;SDS011;63613;28.200;112.870;2024-03-08T14:19:05;34.55;;;26.20;;
41952;SDS011;63613;28.200;112.870;2024-03-08T14:21:36;35.58;;;25.70;;